Time;durP1;ratioP1;P1;durP2;ratioP2;P2;SDS_P1;SDS_P2;PMS_P1;PMS_P2;Temp;Humidity;BMP_temperature;BMP_pressure;BME280_temperature;BME280_humidity;BME280_pressure;Samples;Min_cycle;Max_cycle;Signal;HPM_P1;HPM_P2
2022/09/27 00:02:06;;;;;;;9.40;3.83;;;;;;;10.52;100.00;97883.00;12230784;19;20018;-76
2022/09/27 00:06:13;;;;;;;8.68;4.90;;;;;;;10.53;100.00;97882.72;12203979;19;20506;-78
2022/09/27 00:10:15;;;;;;;10.30;5.80;;;;;;;10.51;100.00;97876.69;12230911;19;20102;-76
2022/09/27 00:14:17;;;;;;;8.60;5.15;;;;;;;10.49;100.00;97876.16;12230391;19;20035;-77
2022/09/27 00:18:20;;;;;;;10.27;5.72;;;;;;;10.44;100.00;97871.56;12208494;19;20014;-78
2022/09/27 00:22:23;;;;;;;12.65;6.35;;;;;;;10.42;100.00;97875.72;12232529;19;20025;-77
2022/09/27 00:26:25;;;;;;;11.00;6.25;;;;;;;10.36;100.00;97872.22;12207339;19;20070;-76
2022/09/27 00:30:27;;;;;;;10.97;6.43;;;;;;;10.43;100.00;97866.34;12227065;19;20043;-77
2022/09/27 00:34:29;;;;;;;13.90;6.43;;;;;;;10.46;100.00;97871.25;12227047;19;20006;-77
2022/09/27 00:38:31;;;;;;;13.02;6.57;;;;;;;10.47;100.00;97868.22;12202252;19;20259;-77
2022/09/27 00:42:33;;;;;;;14.73;7.00;;;;;;;10.48;100.00;97869.03;12225665;19;20283;-77
2022/09/27 00:46:38;;;;;;;14.27;6.93;;;;;;;10.52;100.00;97863.75;12226825;19;20511;-78
2022/09/27 00:50:45;;;;;;;15.20;7.03;;;;;;;10.56;100.00;97867.53;12209138;19;19999;-78
2022/09/27 00:54:52;;;;;;;18.30;9.50;;;;;;;10.57;100.00;97856.22;12228311;19;20055;-77
2022/09/27 00:59:00;;;;;;;18.38;8.73;;;;;;;10.59;100.00;97865.03;12223669;19;20011;-77
2022/09/27 01:03:06;;;;;;;15.48;8.85;;;;;;;10.59;100.00;97859.50;12195009;19;20037;-78
2022/09/27 01:07:07;;;;;;;16.50;8.95;;;;;;;10.59;100.00;97858.66;12216895;19;20038;-77
2022/09/27 01:11:32;;;;;;;14.27;8.00;;;;;;;10.67;100.00;97860.75;12217209;19;20026;-78
2022/09/27 01:15:59;;;;;;;14.85;8.00;;;;;;;10.67;100.00;97863.50;12195983;19;20006;-78
2022/09/27 01:20:19;;;;;;;19.23;8.85;;;;;;;10.67;100.00;97852.50;12217334;19;20046;-77
2022/09/27 01:24:24;;;;;;;18.35;8.77;;;;;;;10.69;100.00;97858.53;12189467;19;20020;-78
2022/09/27 01:28:31;;;;;;;12.25;6.88;;;;;;;10.70;100.00;97860.97;12214024;19;20078;-77
2022/09/27 01:32:48;;;;;;;17.75;7.85;;;;;;;10.64;100.00;97850.34;12194314;19;20457;-78
2022/09/27 01:37:09;;;;;;;13.35;7.25;;;;;;;10.69;100.00;97844.75;12217370;19;20010;-78
2022/09/27 01:41:26;;;;;;;14.27;7.32;;;;;;;10.69;100.00;97850.28;12221135;19;20010;-78
2022/09/27 01:45:57;;;;;;;12.23;7.22;;;;;;;10.71;100.00;97842.53;12123650;19;2004364;-77
2022/09/27 01:50:38;;;;;;;13.38;7.30;;;;;;;10.63;100.00;97837.69;12218209;19;20010;-77
2022/09/27 01:54:44;;;;;;;17.55;7.45;;;;;;;10.66;100.00;97839.84;12194653;19;20013;-77
2022/09/27 01:59:28;;;;;;;14.93;6.65;;;;;;;10.71;100.00;97845.28;12210843;19;20120;-77
2022/09/27 02:03:50;;;;;;;13.15;6.65;;;;;;;10.63;100.00;97837.69;12211284;19;20051;-77
2022/09/27 02:08:40;;;;;;;11.48;5.90;;;;;;;10.63;100.00;97838.50;12211379;19;20050;-77
2022/09/27 02:13:25;;;;;;;15.32;6.00;;;;;;;10.60;100.00;97835.53;12106944;19;2004436;-77
2022/09/27 02:17:57;;;;;;;10.40;4.80;;;;;;;10.64;100.00;97836.56;12190291;19;20011;-77
2022/09/27 02:22:12;;;;;;;;;;;;;;;10.64;100.00;97842.06;12212162;19;20021;-78
2022/09/27 02:26:26;;;;;;;16.10;5.63;;;;;;;10.60;100.00;97838.28;12214228;19;19935;-78
2022/09/27 02:30:29;;;;;;;13.77;5.95;;;;;;;10.56;100.00;97845.50;12191375;19;20018;-77
2022/09/27 02:34:40;;;;;;;11.65;5.65;;;;;;;10.57;100.00;97845.22;12214600;19;20006;-79
2022/09/27 02:38:43;;;;;;;9.43;5.50;;;;;;;10.59;100.00;97836.63;12193370;19;20006;-80
2022/09/27 02:42:47;;;;;;;13.38;6.03;;;;;;;10.58;100.00;97852.34;12221202;19;21394;-79
2022/09/27 02:46:52;;;;;;;13.45;5.68;;;;;;;10.63;100.00;97852.28;12213326;19;20007;-79
2022/09/27 02:51:17;;;;;;;14.35;4.55;;;;;;;10.63;100.00;97849.53;12191033;19;20026;-78
2022/09/27 02:55:30;;;;;;;7.55;4.45;;;;;;;10.56;100.00;97856.50;12216604;19;20006;-78
2022/09/27 02:59:49;;;;;;;11.80;3.85;;;;;;;10.58;100.00;97868.88;12195655;19;20014;-79
2022/09/27 03:04:16;;;;;;;10.10;3.55;;;;;;;10.60;100.00;97876.84;12214218;19;20010;-78
2022/09/27 03:08:17;;;;;;;7.75;3.30;;;;;;;10.62;100.00;97874.59;12215067;19;20010;-78
2022/09/27 03:12:24;;;;;;;8.63;3.20;;;;;;;10.62;100.00;97880.09;12194973;19;20003;-77
2022/09/27 03:16:26;;;;;;;11.80;3.05;;;;;;;10.58;100.00;97884.59;12220351;19;20010;-79
2022/09/27 03:20:53;;;;;;;6.82;2.72;;;;;;;10.60;100.00;97893.38;12228858;19;20017;-77
2022/09/27 03:24:57;;;;;;;6.63;2.97;;;;;;;10.62;100.00;97896.63;12241314;19;20043;-78
2022/09/27 03:28:58;;;;;;;7.93;2.33;;;;;;;10.65;100.00;97901.56;12253475;19;20491;-77
2022/09/27 03:33:01;;;;;;;5.22;2.72;;;;;;;10.64;100.00;97908.19;12230618;19;20014;-77
2022/09/27 03:37:18;;;;;;;9.30;2.45;;;;;;;10.62;100.00;97918.66;12226559;19;20014;-77
2022/09/27 03:41:20;;;;;;;9.25;2.30;;;;;;;10.59;100.00;97924.78;12231677;19;20368;-80
2022/09/27 03:45:21;;;;;;;4.60;1.40;;;;;;;10.57;100.00;97921.50;12204715;19;20040;-76
2022/09/27 03:49:24;;;;;;;5.65;1.63;;;;;;;10.53;100.00;97926.81;12224522;19;20319;-77
2022/09/27 03:53:26;;;;;;;2.55;1.40;;;;;;;10.48;100.00;97932.38;12198480;19;20018;-77
2022/09/27 03:57:29;;;;;;;4.78;1.65;;;;;;;10.45;100.00;97933.75;12220282;19;20089;-78
2022/09/27 04:01:33;;;;;;;3.40;1.00;;;;;;;10.38;100.00;97941.59;12220426;19;20493;-79
2022/09/27 04:05:54;;;;;;;6.20;1.58;;;;;;;10.36;100.00;97951.25;12201974;19;20079;-78
2022/09/27 04:10:05;;;;;;;2.97;1.23;;;;;;;10.28;100.00;97960.97;12215373;19;20018;-80
2022/09/27 04:14:11;;;;;;;5.05;1.77;;;;;;;10.13;100.00;97967.41;12210624;19;20025;-80
2022/09/27 04:18:33;;;;;;;2.45;1.15;;;;;;;10.12;100.00;97970.47;12191424;19;20026;-78
2022/09/27 04:23:10;;;;;;;3.85;1.10;;;;;;;10.07;100.00;97974.09;12210494;19;20018;-81
2022/09/27 04:27:16;;;;;;;4.03;2.08;;;;;;;10.06;100.00;97966.16;12186447;19;20006;-78
2022/09/27 04:31:18;;;;;;;1.38;0.65;;;;;;;10.01;100.00;97975.25;12211136;19;20030;-79
2022/09/27 04:39:45;;;;;;;1.20;0.65;;;;;;;9.98;100.00;97984.91;12218020;19;20014;-80
2022/09/27 04:43:47;;;;;;;2.65;0.70;;;;;;;9.98;100.00;97987.66;12219890;19;20034;-79
2022/09/27 04:47:49;;;;;;;2.67;0.90;;;;;;;9.97;100.00;97991.53;12198617;19;20024;-79
2022/09/27 04:51:51;;;;;;;3.17;1.00;;;;;;;9.97;100.00;97990.72;12216846;19;20006;-80
2022/09/27 04:55:53;;;;;;;2.20;0.95;;;;;;;9.97;100.00;97997.03;12222953;19;20130;-80
2022/09/27 04:59:55;;;;;;;2.10;1.07;;;;;;;9.95;100.00;97999.25;12197783;19;20007;-81
2022/09/27 05:04:00;;;;;;;2.20;0.90;;;;;;;9.95;100.00;97996.50;12225727;19;20267;-80
2022/09/27 05:08:03;;;;;;;3.38;0.98;;;;;;;9.93;100.00;98000.66;12220870;19;20014;-80
2022/09/27 05:12:25;;;;;;;2.17;0.82;;;;;;;9.88;100.00;98009.78;12195073;19;20503;-80
2022/09/27 05:16:33;;;;;;;1.45;0.80;;;;;;;9.86;100.00;98008.44;12218608;19;20006;-80
2022/09/27 05:20:57;;;;;;;3.40;1.15;;;;;;;9.88;100.00;98014.47;12203295;19;20034;-81
2022/09/27 05:25:08;;;;;;;1.92;0.90;;;;;;;9.86;100.00;98020.25;12216128;19;20007;-80
2022/09/27 05:29:10;;;;;;;2.88;0.80;;;;;;;9.86;100.00;98012.00;12220995;19;20018;-85
2022/09/27 05:33:14;;;;;;;1.30;0.65;;;;;;;9.84;100.00;98016.97;12191450;19;20011;-83
2022/09/27 05:37:22;;;;;;;2.25;1.13;;;;;;;9.85;100.00;98026.88;12211729;19;20483;-83
2022/09/27 05:41:24;;;;;;;1.05;0.80;;;;;;;9.79;100.00;98028.84;12191899;19;20090;-83
2022/09/27 05:45:26;;;;;;;1.75;0.80;;;;;;;9.75;100.00;98037.94;12214763;19;20086;-84
2022/09/27 05:49:31;;;;;;;1.25;0.70;;;;;;;9.78;100.00;98048.38;12214231;19;20009;-83
2022/09/27 05:53:33;;;;;;;2.35;0.77;;;;;;;9.82;100.00;98043.97;12191454;19;20011;-82
2022/09/27 05:57:37;;;;;;;1.63;0.98;;;;;;;9.84;100.00;98052.72;12218372;19;20019;-83
2022/09/27 06:01:41;;;;;;;2.50;0.82;;;;;;;9.92;100.00;98063.13;12216231;19;20010;-83
2022/09/27 06:06:09;;;;;;;1.48;0.80;;;;;;;10.02;100.00;98065.78;12197975;19;20034;-82
2022/09/27 06:10:19;;;;;;;3.60;0.80;;;;;;;10.11;100.00;98067.91;12217171;19;20021;-81
2022/09/27 06:14:21;;;;;;;1.43;0.83;;;;;;;10.13;100.00;98065.69;12220751;19;20102;-82
2022/09/27 06:18:32;;;;;;;0.77;0.50;;;;;;;10.21;100.00;98073.31;12195827;19;20033;-81
2022/09/27 06:22:35;;;;;;;2.35;0.70;;;;;;;10.28;100.00;98084.84;12217875;19;20609;-81
2022/09/27 06:26:37;;;;;;;0.50;0.50;;;;;;;10.38;100.00;98076.50;12194052;19;20014;-81
2022/09/27 06:30:49;;;;;;;1.08;0.57;;;;;;;10.45;100.00;98085.22;12213694;19;20014;-82
2022/09/27 06:35:17;;;;;;;3.20;0.75;;;;;;;10.55;100.00;98094.47;12196472;19;20013;-82
2022/09/27 06:39:18;;;;;;;2.33;0.50;;;;;;;10.61;100.00;98099.63;12194150;19;20484;-83
2022/09/27 06:43:29;;;;;;;2.05;0.60;;;;;;;10.61;100.00;98099.63;12214660;19;20011;-81
2022/09/27 06:47:37;;;;;;;0.80;0.50;;;;;;;10.62;100.00;98111.47;12199963;19;20006;-81
2022/09/27 06:51:51;;;;;;;1.77;0.70;;;;;;;10.66;100.00;98118.06;12217220;19;20664;-80
2022/09/27 06:56:00;;;;;;;1.75;0.63;;;;;;;10.71;100.00;98116.06;12216928;19;20019;-80
2022/09/27 07:00:22;;;;;;;1.70;0.70;;;;;;;10.73;100.00;98127.59;12195641;19;20389;-80
2022/09/27 07:04:59;;;;;;;3.83;1.05;;;;;;;10.83;100.00;98136.91;12208597;19;20030;-80
2022/09/27 07:09:16;;;;;;;4.22;0.70;;;;;;;10.85;100.00;98142.91;12190735;19;20086;-79
2022/09/27 07:13:18;;;;;;;0.93;0.50;;;;;;;10.86;100.00;98142.63;12213073;19;20018;-81
2022/09/27 07:17:20;;;;;;;1.50;0.50;;;;;;;10.93;100.00;98165.16;12215356;19;20033;-80
2022/09/27 07:21:23;;;;;;;0.50;0.50;;;;;;;10.85;100.00;98163.03;12196273;19;20515;-80
2022/09/27 07:25:25;;;;;;;1.73;0.50;;;;;;;10.78;100.00;98168.06;12212723;19;20078;-81
2022/09/27 07:29:28;;;;;;;3.30;0.57;;;;;;;10.76;100.00;98170.28;12193911;19;20010;-80
2022/09/27 07:33:30;;;;;;;0.70;0.45;;;;;;;10.89;100.00;98166.03;12213698;19;20457;-82
2022/09/27 07:37:36;;;;;;;1.00;0.40;;;;;;;10.98;100.00;98174.50;12213733;19;20086;-81
2022/09/27 07:41:42;;;;;;;0.93;0.47;;;;;;;11.12;100.00;98186.44;12190488;19;20014;-80
2022/09/27 07:45:45;;;;;;;3.45;0.50;;;;;;;11.18;100.00;98196.28;12210479;19;20010;-80
2022/09/27 07:50:11;;;;;;;0.55;0.47;;;;;;;11.22;100.00;98194.59;12215260;19;20034;-79
2022/09/27 07:54:25;;;;;;;0.85;0.50;;;;;;;11.29;100.00;98194.25;12191743;19;20022;-79
2022/09/27 07:58:39;;;;;;;1.63;0.70;;;;;;;11.39;100.00;98207.91;12214182;19;20019;-79
2022/09/27 08:02:42;;;;;;;;;;;;;;;11.54;100.00;98218.75;12191850;19;20016;-79
2022/09/27 08:06:44;;;;;;;1.60;1.50;;;;;;;11.66;100.00;98214.75;12213381;19;19969;-78
2022/09/27 08:10:46;;;;;;;0.70;0.50;;;;;;;11.71;100.00;98221.00;12230583;19;20023;-80
2022/09/27 08:14:48;;;;;;;0.70;0.52;;;;;;;11.94;100.00;98229.59;12202740;19;20474;-79
2022/09/27 08:18:50;;;;;;;0.90;0.50;;;;;;;12.47;100.00;98226.59;12221703;19;20021;-79
2022/09/27 08:23:12;;;;;;;1.58;0.38;;;;;;;12.92;100.00;98221.41;12222655;19;20011;-79
2022/09/27 08:27:16;;;;;;;0.47;0.43;;;;;;;13.29;100.00;98214.91;12197397;19;20017;-79
2022/09/27 08:31:24;;;;;;;3.60;0.73;;;;;;;13.45;100.00;98220.97;12222590;19;20006;-79
2022/09/27 08:35:32;;;;;;;6.22;0.80;;;;;;;13.35;100.00;98216.44;12203205;19;20083;-81
2022/09/27 08:39:35;;;;;;;5.40;0.88;;;;;;;13.21;100.00;98221.13;12224405;19;20019;-80
2022/09/27 08:43:49;;;;;;;1.25;0.60;;;;;;;13.05;100.00;98228.06;12220073;19;20017;-79
2022/09/27 08:47:59;;;;;;;1.83;0.75;;;;;;;13.20;100.00;98236.88;12203963;19;20010;-80
2022/09/27 08:52:04;;;;;;;2.40;1.10;;;;;;;13.18;100.00;98239.16;12223621;19;20014;-80
2022/09/27 08:56:08;;;;;;;0.98;0.57;;;;;;;13.36;100.00;98242.19;12224992;19;20015;-79
2022/09/27 09:00:14;;;;;;;0.75;0.40;;;;;;;13.39;98.47;98236.03;12205190;19;19998;-80
2022/09/27 09:04:22;;;;;;;;;;;;;;;13.20;97.24;98239.66;12223500;19;20466;-80
2022/09/27 09:08:27;;;;;;;2.25;0.77;;;;;;;13.40;98.71;98227.41;12204351;19;19925;-80
2022/09/27 09:12:50;;;;;;;0.73;0.60;;;;;;;13.88;94.61;98242.75;12225306;19;20088;-80
2022/09/27 09:17:35;;;;;;;2.53;0.50;;;;;;;13.71;93.06;98245.34;12229423;19;20006;-80
2022/09/27 09:22:07;;;;;;;2.67;0.60;;;;;;;13.56;94.82;98241.75;12136562;19;2004173;-81
2022/09/27 09:26:28;;;;;;;1.83;0.57;;;;;;;13.67;96.72;98234.88;12221630;19;20021;-80
2022/09/27 09:30:49;;;;;;;4.20;0.50;;;;;;;13.78;95.32;98237.47;12196162;19;20018;-79
2022/09/27 09:34:58;;;;;;;7.72;1.40;;;;;;;14.31;95.26;98223.00;12220004;19;20479;-81
2022/09/27 09:39:18;;;;;;;3.45;0.80;;;;;;;14.82;89.00;98230.06;12197448;19;20014;-80
2022/09/27 09:43:30;;;;;;;0.40;0.40;;;;;;;14.79;89.50;98231.53;12216067;19;20050;-79
2022/09/27 09:47:38;;;;;;;1.33;0.55;;;;;;;14.50;88.04;98223.63;12199133;19;20034;-76
2022/09/27 09:51:48;;;;;;;1.58;0.52;;;;;;;14.21;88.46;98220.44;12218560;19;20029;-80
2022/09/27 09:56:04;;;;;;;1.63;0.50;;;;;;;13.91;87.60;98220.00;12218111;19;20002;-80
2022/09/27 10:00:17;;;;;;;2.75;0.50;;;;;;;13.50;91.06;98225.56;12200027;19;20018;-80
2022/09/27 10:04:31;;;;;;;1.45;0.60;;;;;;;13.29;95.05;98225.16;12221378;19;20018;-79
2022/09/27 10:08:33;;;;;;;2.60;0.50;;;;;;;13.17;94.51;98223.66;12194684;19;20025;-79
2022/09/27 10:13:04;;;;;;;1.35;0.50;;;;;;;12.77;95.78;98225.25;12218012;19;20047;-79
2022/09/27 10:17:16;;;;;;;1.65;0.75;;;;;;;12.46;98.95;98233.22;12219091;19;20010;-80
2022/09/27 10:21:24;;;;;;;1.30;0.55;;;;;;;12.02;100.00;98240.78;12202096;19;20002;-83
2022/09/27 10:25:45;;;;;;;3.08;0.80;;;;;;;11.85;100.00;98221.97;12223478;19;20021;-81
2022/09/27 10:30:22;;;;;;;0.85;0.50;;;;;;;12.10;100.00;98219.94;12203372;19;20011;-82
2022/09/27 10:34:35;;;;;;;0.65;0.50;;;;;;;12.65;100.00;98211.09;12219549;19;20045;-83
2022/09/27 10:38:38;;;;;;;0.50;0.50;;;;;;;12.99;100.00;98208.78;12199726;19;20006;-80
2022/09/27 10:42:57;;;;;;;1.25;0.50;;;;;;;13.19;100.00;98204.03;12228353;19;20010;-82
2022/09/27 10:47:22;;;;;;;0.65;0.55;;;;;;;13.23;100.00;98200.31;12224221;19;20006;-81
2022/09/27 10:51:31;;;;;;;;;;;;;;;13.21;100.00;98201.78;12201009;19;20014;-82
2022/09/27 10:55:36;;;;;;;2.63;0.50;;;;;;;13.54;100.00;98197.00;12218823;19;19918;-81
2022/09/27 10:59:40;;;;;;;3.50;0.85;;;;;;;13.70;100.00;98202.19;12197493;19;20030;-80
2022/09/27 11:03:49;;;;;;;2.10;0.60;;;;;;;13.66;100.00;98202.00;12217978;19;20074;-81
2022/09/27 11:07:56;;;;;;;1.48;0.65;;;;;;;13.76;100.00;98195.41;12214684;19;20027;-81
2022/09/27 11:12:19;;;;;;;2.58;0.82;;;;;;;13.91;100.00;98193.13;12194537;19;19999;-81
2022/09/27 11:16:49;;;;;;;0.85;0.50;;;;;;;14.44;97.75;98182.50;12217229;19;20110;-81
2022/09/27 11:21:19;;;;;;;2.63;0.90;;;;;;;14.69;95.45;98190.19;12197184;19;20051;-80
2022/09/27 11:25:33;;;;;;;1.10;0.90;;;;;;;14.64;93.91;98189.50;12215318;19;20015;-81
2022/09/27 11:30:02;;;;;;;1.58;0.90;;;;;;;14.84;95.83;98196.47;12199659;19;20011;-79
2022/09/27 11:34:36;;;;;;;2.72;0.93;;;;;;;14.79;93.62;98178.84;12241939;19;20363;-79
2022/09/27 11:38:57;;;;;;;2.00;1.10;;;;;;;14.56;93.18;98183.59;12222362;19;20471;-78
2022/09/27 11:43:15;;;;;;;3.08;0.75;;;;;;;15.09;95.52;98178.34;12239742;19;20014;-79
2022/09/27 11:47:54;;;;;;;2.67;0.85;;;;;;;15.14;90.37;98169.88;12224913;19;20052;-79
2022/09/27 11:52:14;;;;;;;2.20;0.75;;;;;;;15.29;88.01;98158.34;12120122;19;2006014;-80
2022/09/27 11:56:26;;;;;;;2.40;0.80;;;;;;;15.50;85.73;98162.19;12221218;19;20022;-80
2022/09/27 12:00:39;;;;;;;2.10;1.00;;;;;;;15.59;80.95;98167.75;12198197;19;20014;-80
2022/09/27 12:05:23;;;;;;;1.00;0.70;;;;;;;15.68;76.69;98159.47;12216708;19;20016;-80
2022/09/27 12:09:42;;;;;;;1.65;0.70;;;;;;;15.31;76.88;98156.06;12193163;19;20028;-80
2022/09/27 12:13:54;;;;;;;4.80;1.30;;;;;;;15.23;79.12;98148.53;12214698;19;20687;-78
2022/09/27 12:18:11;;;;;;;4.20;1.20;;;;;;;15.28;78.50;98148.38;12191304;19;20021;-78
2022/09/27 12:22:17;;;;;;;5.70;1.38;;;;;;;15.34;77.63;98144.31;12213254;19;20012;-80
2022/09/27 12:26:42;;;;;;;2.15;1.00;;;;;;;15.37;78.15;98146.44;12192799;19;20011;-77
2022/09/27 12:30:53;;;;;;;2.05;0.95;;;;;;;15.12;74.58;98142.47;12217687;19;20072;-79
2022/09/27 12:35:21;;;;;;;1.75;0.80;;;;;;;14.92;73.66;98138.28;12217082;19;20528;-79
2022/09/27 12:39:41;;;;;;;3.78;1.00;;;;;;;15.08;75.08;98143.41;12192513;19;20365;-79
2022/09/27 12:43:53;;;;;;;2.78;0.80;;;;;;;15.01;73.86;98154.97;12213354;19;20014;-80
2022/09/27 12:48:17;;;;;;;1.67;0.80;;;;;;;14.87;74.05;98143.16;12183823;19;20783;-79
2022/09/27 12:52:24;;;;;;;;;;;;;;;14.75;74.79;98143.72;12211293;19;20378;-80
2022/09/27 12:56:48;;;;;;;3.05;1.20;;;;;;;14.52;75.46;98146.56;12195327;19;19914;-78
2022/09/27 13:00:57;;;;;;;1.73;1.00;;;;;;;14.34;76.70;98147.53;12222399;19;20002;-79
2022/09/27 13:05:28;;;;;;;1.95;0.98;;;;;;;14.35;78.42;98140.84;12221668;19;20095;-79
2022/09/27 13:09:38;;;;;;;3.75;1.10;;;;;;;14.14;79.78;98151.63;12199443;19;20488;-79
2022/09/27 13:13:40;;;;;;;2.00;0.95;;;;;;;14.08;81.55;98137.06;12223256;19;20010;-79
2022/09/27 13:17:44;;;;;;;2.15;0.70;;;;;;;13.89;81.26;98140.03;12197439;19;20026;-79
2022/09/27 13:21:56;;;;;;;1.85;1.05;;;;;;;13.36;85.74;98153.66;12223661;19;20011;-80
2022/09/27 13:26:31;;;;;;;;;;;;;;;12.77;89.53;98156.16;12202254;19;20010;-79
2022/09/27 13:30:36;;;;;;;1.15;1.00;;;;;;;12.47;92.30;98157.53;12221352;19;19934;-79
2022/09/27 13:34:45;;;;;;;4.63;1.00;;;;;;;12.25;94.39;98152.63;12219210;19;20479;-79
2022/09/27 13:39:03;;;;;;;4.18;0.80;;;;;;;12.20;94.84;98161.00;12194762;19;20015;-79
2022/09/27 13:43:16;;;;;;;2.13;0.80;;;;;;;12.12;96.06;98148.69;12223417;19;20090;-79
2022/09/27 13:47:35;;;;;;;1.38;0.68;;;;;;;12.24;96.60;98149.03;12205114;19;20495;-80
2022/09/27 13:51:46;;;;;;;4.30;0.90;;;;;;;12.31;96.90;98159.69;12219826;19;20030;-79
2022/09/27 13:55:50;;;;;;;2.78;0.85;;;;;;;12.41;95.94;98150.44;12220211;19;20022;-79
2022/09/27 14:00:23;;;;;;;2.25;0.75;;;;;;;12.45;97.44;98146.75;12197815;19;20017;-79
2022/09/27 14:04:47;;;;;;;1.77;0.63;;;;;;;12.52;98.88;98146.34;12218745;19;20011;-80
2022/09/27 14:08:55;;;;;;;1.73;0.80;;;;;;;12.59;100.00;98134.94;12200122;19;20007;-78
2022/09/27 14:13:02;;;;;;;2.72;0.75;;;;;;;12.71;99.95;98138.84;12220337;19;20003;-79
2022/09/27 14:17:06;;;;;;;2.40;1.00;;;;;;;12.78;99.58;98139.25;12218257;19;20467;-80
2022/09/27 14:21:27;;;;;;;1.23;0.80;;;;;;;12.97;99.09;98141.13;12202958;19;20081;-79
2022/09/27 14:25:47;;;;;;;2.22;0.82;;;;;;;13.16;98.09;98141.03;12223747;19;20065;-79
2022/09/27 14:30:00;;;;;;;2.70;1.17;;;;;;;13.37;97.23;98138.69;12205862;19;20018;-79
2022/09/27 14:34:07;;;;;;;2.08;1.10;;;;;;;13.60;96.57;98125.75;12224521;19;20504;-79
2022/09/27 14:38:19;;;;;;;2.67;1.02;;;;;;;13.98;94.29;98131.78;12224413;19;20094;-79
2022/09/27 14:42:43;;;;;;;4.82;1.70;;;;;;;14.10;94.82;98134.81;12204855;19;20014;-80
2022/09/27 14:46:46;;;;;;;2.27;0.97;;;;;;;14.11;94.57;98133.69;12231655;19;20077;-79
2022/09/27 14:51:02;;;;;;;2.92;1.33;;;;;;;14.05;93.97;98132.16;12206972;19;20031;-78
2022/09/27 14:55:08;;;;;;;2.50;1.13;;;;;;;13.94;95.25;98143.78;12221880;19;20018;-79
2022/09/27 14:59:14;;;;;;;4.60;1.45;;;;;;;13.80;96.39;98136.38;12219571;19;20011;-78
2022/09/27 15:03:27;;;;;;;2.58;1.40;;;;;;;13.79;95.16;98139.44;12199465;19;20110;-80
2022/09/27 15:07:30;;;;;;;3.58;1.52;;;;;;;13.76;95.58;98142.81;12223824;19;20017;-79
2022/09/27 15:11:33;;;;;;;2.90;1.10;;;;;;;13.68;93.13;98138.81;12192537;19;20007;-79
2022/09/27 15:15:38;;;;;;;1.70;0.93;;;;;;;13.57;92.96;98129.94;12218624;19;20761;-79
2022/09/27 15:19:55;;;;;;;2.53;1.17;;;;;;;13.44;94.21;98131.63;12213922;19;20007;-79
2022/09/27 15:23:58;;;;;;;4.40;1.00;;;;;;;13.15;93.36;98137.44;12196479;19;20015;-81
2022/09/27 15:28:13;;;;;;;5.73;1.50;;;;;;;12.77;95.03;98183.78;12221199;19;20011;-80
2022/09/27 15:32:18;;;;;;;3.00;1.25;;;;;;;11.75;100.00;98179.84;12221007;19;20283;-80
2022/09/27 15:36:43;;;;;;;3.70;1.98;;;;;;;11.02;100.00;98178.28;12197991;19;20010;-83
2022/09/27 15:40:47;;;;;;;7.28;2.05;;;;;;;10.64;100.00;98178.13;12210941;19;20010;-81
2022/09/27 15:44:57;;;;;;;3.65;2.00;;;;;;;10.42;100.00;98190.44;12183279;19;20025;-82
2022/09/27 15:49:15;;;;;;;3.67;2.20;;;;;;;10.38;100.00;98183.88;12200669;19;20098;-80
2022/09/27 15:53:41;;;;;;;4.38;2.17;;;;;;;10.33;100.00;98172.09;12205104;19;20414;-80
2022/09/27 15:57:46;;;;;;;3.83;2.05;;;;;;;10.29;100.00;98173.75;12177535;19;20345;-81
2022/09/27 16:01:51;;;;;;;6.10;2.40;;;;;;;10.29;100.00;98179.25;12202797;19;20025;-81
2022/09/27 16:05:58;;;;;;;5.70;2.45;;;;;;;10.30;100.00;98173.47;12190306;19;20003;-79
2022/09/27 16:10:00;;;;;;;6.13;2.42;;;;;;;10.29;100.00;98171.00;12204828;19;20031;-81
2022/09/27 16:14:01;;;;;;;5.75;2.65;;;;;;;10.32;100.00;98182.28;12205377;19;20014;-82
2022/09/27 16:18:03;;;;;;;6.18;2.63;;;;;;;10.30;100.00;98186.41;12184885;19;20082;-81
2022/09/27 16:22:05;;;;;;;7.90;2.63;;;;;;;10.29;100.00;98191.09;12209127;19;20010;-82
2022/09/27 16:26:07;;;;;;;9.88;3.25;;;;;;;10.38;100.00;98194.88;12205443;19;20022;-81
2022/09/27 16:30:09;;;;;;;10.77;4.53;;;;;;;10.39;100.00;98191.00;12193011;19;20029;-81
2022/09/27 16:34:11;;;;;;;6.87;4.27;;;;;;;10.44;100.00;98193.72;12219811;19;20015;-83
2022/09/27 16:38:13;;;;;;;8.55;4.22;;;;;;;10.48;100.00;98193.97;12217805;19;20010;-82
2022/09/27 16:42:15;;;;;;;7.60;4.38;;;;;;;10.49;100.00;98201.13;12201297;19;20037;-82
2022/09/27 16:46:18;;;;;;;7.60;4.40;;;;;;;10.47;100.00;98209.69;12220912;19;20014;-82
2022/09/27 16:54:40;;;;;;;8.23;3.80;;;;;;;10.41;100.00;98198.97;12196810;19;20031;-82
2022/09/27 16:58:42;;;;;;;7.63;3.70;;;;;;;10.38;100.00;98200.41;12217330;19;20006;-82
2022/09/27 17:02:47;;;;;;;9.60;2.53;;;;;;;10.36;100.00;98201.78;12196396;19;20345;-82
2022/09/27 17:06:50;;;;;;;6.05;2.65;;;;;;;10.34;100.00;98196.56;12218187;19;19998;-82
2022/09/27 17:10:52;;;;;;;4.67;2.40;;;;;;;10.26;100.00;98197.13;12221869;19;20362;-82
2022/09/27 17:14:55;;;;;;;4.25;2.38;;;;;;;10.21;100.00;98192.50;12213112;19;20010;-81
2022/09/27 17:18:57;;;;;;;8.82;2.42;;;;;;;10.19;100.00;98202.16;12222627;19;20010;-81
2022/09/27 17:22:59;;;;;;;5.70;2.00;;;;;;;10.15;100.00;98201.09;12221414;19;20034;-80
2022/09/27 17:27:01;;;;;;;5.85;2.03;;;;;;;10.10;100.00;98192.88;12199905;19;20002;-81
2022/09/27 17:31:05;;;;;;;7.97;2.20;;;;;;;10.10;100.00;98198.38;12223589;19;20090;-82
2022/09/27 17:35:08;;;;;;;3.33;2.03;;;;;;;10.04;100.00;98206.66;12221988;19;20033;-81
2022/09/27 17:39:12;;;;;;;4.63;1.60;;;;;;;10.00;100.00;98216.59;12194313;19;20036;-79
2022/09/27 17:43:14;;;;;;;3.80;1.92;;;;;;;9.96;100.00;98215.50;12213674;19;20054;-80
2022/09/27 17:51:39;;;;;;;3.67;2.00;;;;;;;9.91;100.00;98217.50;12187583;19;20637;-78
2022/09/27 17:55:41;;;;;;;2.97;1.95;;;;;;;9.91;100.00;98218.31;12217385;19;20007;-79
2022/09/27 17:59:43;;;;;;;5.20;1.75;;;;;;;9.91;100.00;98225.75;12198420;19;20067;-80
2022/09/27 18:03:46;;;;;;;4.55;2.45;;;;;;;9.91;100.00;98223.00;12219211;19;20034;-78
2022/09/27 18:07:48;;;;;;;5.88;2.50;;;;;;;9.92;100.00;98221.88;12220468;19;20020;-79
2022/09/27 18:11:49;;;;;;;3.92;2.50;;;;;;;9.89;100.00;98228.75;12190987;19;20739;-80
2022/09/27 18:15:57;;;;;;;4.15;2.17;;;;;;;9.93;100.00;98221.56;12215639;19;20043;-81
2022/09/27 18:20:01;;;;;;;5.03;2.28;;;;;;;9.95;100.00;98229.56;12212124;19;20011;-81
2022/09/27 18:24:05;;;;;;;5.85;2.90;;;;;;;10.01;100.00;98228.41;12191740;19;20089;-79
2022/09/27 18:28:08;;;;;;;4.28;1.90;;;;;;;9.97;100.00;98235.59;12211055;19;20007;-78
2022/09/27 18:32:09;;;;;;;4.78;1.90;;;;;;;9.96;100.00;98234.75;12213632;19;20372;-78
2022/09/27 18:36:23;;;;;;;2.05;1.50;;;;;;;9.93;100.00;98235.34;12192805;19;20114;-79
2022/09/27 18:40:25;;;;;;;2.60;1.83;;;;;;;9.93;100.00;98249.09;12215885;19;20150;-78
2022/09/27 18:44:47;;;;;;;3.42;1.50;;;;;;;9.90;100.00;98246.09;12190710;19;20006;-78
2022/09/27 18:48:48;;;;;;;4.57;2.13;;;;;;;9.89;100.00;98248.03;12211987;19;20006;-79
2022/09/27 18:52:51;;;;;;;5.45;1.98;;;;;;;9.88;100.00;98254.66;12202874;19;20353;-78
2022/09/27 18:56:53;;;;;;;3.65;1.77;;;;;;;9.87;100.00;98260.41;12187509;19;20491;-78
2022/09/27 19:00:58;;;;;;;3.65;2.03;;;;;;;9.80;100.00;98261.53;12211365;19;20007;-78
2022/09/27 19:05:00;;;;;;;3.50;2.10;;;;;;;9.78;100.00;98258.25;12208316;19;20019;-78
2022/09/27 19:09:02;;;;;;;3.20;1.92;;;;;;;9.74;100.00;98256.34;12191815;19;20010;-77
2022/09/27 19:13:04;;;;;;;6.65;2.45;;;;;;;9.58;100.00;98259.19;12207708;19;20037;-78
2022/09/27 19:17:05;;;;;;;5.10;2.30;;;;;;;9.47;100.00;98262.25;12208891;19;20007;-78
2022/09/27 19:21:10;;;;;;;7.13;2.50;;;;;;;9.31;100.00;98256.81;12187646;19;20062;-77
2022/09/27 19:25:12;;;;;;;4.43;2.40;;;;;;;9.25;100.00;98257.06;12203998;19;20023;-77
2022/09/27 19:29:14;;;;;;;5.25;2.20;;;;;;;9.18;100.00;98259.31;12208553;19;20491;-77
2022/09/27 19:33:15;;;;;;;6.00;2.65;;;;;;;9.09;100.00;98254.38;12186482;19;20070;-77